Time;durP1;ratioP1;P1;durP2;ratioP2;P2;SDS_P1;SDS_P2;PMS_P1;PMS_P2;Temp;Humidity;BMP_temperature;BMP_pressure;BME280_temperature;BME280_humidity;BME280_pressure;Samples;Min_cycle;Max_cycle;Signal;HPM_P1;HPM_P2
2022/06/20 00:01:23;;;;;;;31.38;4.25;;;;;;;14.87;100.00;100991.53;5078452;28;20040;-77
2022/06/20 00:03:50;;;;;;;29.63;4.53;;;;;;;14.93;100.00;100985.44;5078808;28;20115;-78
2022/06/20 00:06:20;;;;;;;24.92;4.07;;;;;;;14.96;100.00;100993.41;5096603;28;20108;-78
2022/06/20 00:08:49;;;;;;;36.83;3.92;;;;;;;14.93;100.00;100992.84;5094128;28;20032;-78
2022/06/20 00:11:22;;;;;;;35.90;4.65;;;;;;;14.96;100.00;101004.44;5078354;28;20039;-78
2022/06/20 00:13:50;;;;;;;42.45;5.38;;;;;;;14.85;100.00;101021.13;5078186;28;20028;-77
2022/06/20 00:16:18;;;;;;;26.00;4.63;;;;;;;14.88;100.00;101009.81;5077828;28;20028;-77
2022/06/20 00:18:45;;;;;;;36.20;4.47;;;;;;;14.88;100.00;101007.91;5094823;28;20032;-77
2022/06/20 00:21:13;;;;;;;36.00;4.78;;;;;;;14.87;100.00;101010.81;5078077;28;20037;-77
2022/06/20 00:23:39;;;;;;;39.13;5.38;;;;;;;14.76;100.00;101009.09;5061534;28;20131;-77
2022/06/20 00:26:05;;;;;;;25.77;4.53;;;;;;;14.71;100.00;101019.69;5060895;28;20053;-77
2022/06/20 00:28:31;;;;;;;32.28;4.88;;;;;;;14.56;100.00;101032.09;5078256;28;20119;-78
2022/06/20 00:30:56;;;;;;;31.63;5.30;;;;;;;14.58;100.00;101030.97;5061353;28;20400;-77
2022/06/20 00:33:22;;;;;;;37.97;5.13;;;;;;;14.56;100.00;101035.75;5061539;28;20036;-77
2022/06/20 00:35:47;;;;;;;47.65;5.43;;;;;;;14.60;100.00;101039.97;5080179;28;20024;-77
2022/06/20 00:38:18;;;;;;;42.45;6.20;;;;;;;14.51;100.00;101049.94;5080246;28;20115;-78
2022/06/20 00:41:11;;;;;;;35.00;5.05;;;;;;;14.50;100.00;101048.19;5079616;28;20101;-77
2022/06/20 00:43:45;;;;;;;33.13;6.07;;;;;;;14.47;100.00;101059.50;5071932;28;20071;-77
2022/06/20 00:46:57;;;;;;;29.35;4.93;;;;;;;14.47;100.00;101088.94;5062411;28;20162;-77
2022/06/20 00:49:25;;;;;;;39.75;5.70;;;;;;;14.46;100.00;101088.09;5058647;28;20463;-78
2022/06/20 00:51:56;;;;;;;35.53;6.13;;;;;;;14.34;100.00;101103.81;5080267;28;20028;-77
2022/06/20 00:54:22;;;;;;;36.05;5.80;;;;;;;14.45;100.00;101151.59;5081711;28;20032;-77
2022/06/20 00:56:58;;;;;;;39.13;5.40;;;;;;;14.47;100.00;101196.41;5077726;28;20501;-78
2022/06/20 00:59:32;;;;;;;25.15;5.15;;;;;;;14.68;100.00;101212.91;5077179;28;20033;-78
2022/06/20 01:01:59;;;;;;;33.67;6.30;;;;;;;14.63;100.00;101223.47;5078229;28;20480;-78
2022/06/20 01:04:41;;;;;;;27.58;5.47;;;;;;;14.58;100.00;101234.03;5077345;28;20106;-77
2022/06/20 01:07:18;;;;;;;40.50;5.03;;;;;;;14.65;100.00;101241.59;5080031;28;20024;-78
2022/06/20 01:09:49;;;;;;;35.15;6.20;;;;;;;14.80;100.00;101222.81;5082378;28;20024;-77
2022/06/20 01:12:17;;;;;;;31.25;6.03;;;;;;;14.67;100.00;101178.06;5097824;28;20036;-77
2022/06/20 01:14:43;;;;;;;28.45;5.38;;;;;;;14.59;100.00;101164.09;5098781;28;20024;-77
2022/06/20 01:17:27;;;;;;;29.92;5.57;;;;;;;14.64;100.00;101167.34;5077974;28;20449;-79
2022/06/20 01:20:01;;;;;;;40.97;6.00;;;;;;;14.61;100.00;101167.59;5093965;28;20056;-77
2022/06/20 01:22:43;;;;;;;33.08;5.30;;;;;;;14.44;100.00;101149.84;5094538;28;20093;-78
2022/06/20 01:25:26;;;;;;;28.15;5.88;;;;;;;14.43;100.00;101142.56;5094531;28;20017;-77
2022/06/20 01:27:53;;;;;;;34.13;6.32;;;;;;;14.43;100.00;101142.56;5077660;28;20028;-77
2022/06/20 01:30:23;;;;;;;35.33;6.75;;;;;;;14.43;100.00;101123.28;5094282;28;20024;-77
2022/06/20 01:32:49;;;;;;;37.22;6.10;;;;;;;14.32;100.00;101113.25;5095861;28;20062;-77
2022/06/20 01:37:23;;;;;;;34.05;6.40;;;;;;;14.33;100.00;101104.88;5077350;28;20062;-77
2022/06/20 01:38:03;;;;;;;33.53;5.75;;;;;;;14.34;100.00;101089.19;5095488;28;20032;-77
2022/06/20 01:40:29;;;;;;;33.03;7.07;;;;;;;14.14;100.00;101080.00;5077057;28;20048;-77
2022/06/20 01:42:57;;;;;;;35.78;5.75;;;;;;;14.01;100.00;101076.63;5094564;28;20164;-77
2022/06/20 01:48:14;;;;;;;40.65;6.00;;;;;;;13.87;100.00;101045.72;5094284;28;20408;-77
2022/06/20 01:50:42;;;;;;;28.88;4.80;;;;;;;13.83;100.00;101035.97;5060443;28;20322;-77
2022/06/20 01:53:11;;;;;;;41.35;5.03;;;;;;;13.87;100.00;101036.56;5095216;28;20082;-76
2022/06/20 01:55:36;;;;;;;27.08;5.25;;;;;;;13.83;100.00;101029.59;5095107;28;20024;-77
2022/06/20 01:58:18;;;;;;;36.63;4.63;;;;;;;13.81;100.00;101028.84;5060368;28;20036;-77
2022/06/20 02:00:44;;;;;;;40.78;7.10;;;;;;;13.81;100.00;101024.25;5094962;28;20083;-77
2022/06/20 02:03:13;;;;;;;29.67;4.82;;;;;;;13.89;100.00;101016.16;5076763;28;20483;-77
2022/06/20 02:05:42;;;;;;;36.60;4.63;;;;;;;13.87;100.00;101028.31;5093915;28;20475;-77
2022/06/20 02:08:08;;;;;;;35.85;5.78;;;;;;;13.89;100.00;101034.56;5093705;28;20077;-76
2022/06/20 02:10:41;;;;;;;23.05;4.10;;;;;;;13.88;100.00;101030.06;5093566;28;20124;-77
2022/06/20 02:13:07;;;;;;;;;;;;;;;13.95;100.00;101018.38;5094138;28;20028;-77
2022/06/20 02:15:33;;;;;;;36.33;4.20;;;;;;;13.94;100.00;100996.47;5093626;28;19912;-77
2022/06/20 02:18:03;;;;;;;30.98;5.22;;;;;;;13.86;100.00;100996.31;5093690;28;20039;-77
2022/06/20 02:20:38;;;;;;;17.95;4.15;;;;;;;13.83;100.00;100993.81;5094155;28;20082;-77
2022/06/20 02:23:05;;;;;;;25.20;5.07;;;;;;;13.74;100.00;101001.00;5096584;28;20035;-77
2022/06/20 02:25:34;;;;;;;21.80;4.30;;;;;;;13.74;100.00;100999.16;5061654;28;20024;-77
2022/06/20 02:28:11;;;;;;;28.58;4.68;;;;;;;13.80;100.00;100994.97;5093361;28;20475;-76
2022/06/20 02:30:37;;;;;;;25.63;4.95;;;;;;;13.91;100.00;100997.63;5093949;28;20059;-77
2022/06/20 02:33:16;;;;;;;31.48;5.85;;;;;;;13.84;100.00;100995.53;5093050;28;20093;-77
2022/06/20 02:35:42;;;;;;;35.83;5.70;;;;;;;13.78;100.00;100991.50;5094917;28;20086;-77
2022/06/20 02:38:08;;;;;;;33.47;4.55;;;;;;;13.71;100.00;100991.16;5063991;28;20471;-77
2022/06/20 02:40:35;;;;;;;36.63;5.00;;;;;;;13.73;100.00;100971.78;5098070;28;20059;-77
2022/06/20 02:43:09;;;;;;;19.65;4.80;;;;;;;13.69;100.00;100968.44;5096281;28;20056;-77
2022/06/20 02:45:38;;;;;;;18.30;4.07;;;;;;;13.68;100.00;100963.06;5096343;28;20035;-77
2022/06/20 02:48:07;;;;;;;38.88;4.28;;;;;;;13.69;100.00;100960.19;5078759;28;20032;-77
2022/06/20 02:50:38;;;;;;;26.52;4.22;;;;;;;13.70;100.00;100964.66;5097225;28;20089;-77
2022/06/20 02:53:16;;;;;;;26.60;4.82;;;;;;;13.70;100.00;100948.16;5095570;28;20028;-78
2022/06/20 02:55:42;;;;;;;25.05;5.30;;;;;;;13.76;100.00;100946.72;5078201;28;20036;-77
2022/06/20 02:58:25;;;;;;;34.33;4.93;;;;;;;13.82;100.00;100953.53;5095269;28;20389;-77
2022/06/20 03:00:55;;;;;;;23.13;5.13;;;;;;;13.83;100.00;100964.41;5078505;28;20031;-77
2022/06/20 03:03:31;;;;;;;27.73;3.92;;;;;;;13.78;100.00;100958.47;5095644;28;20028;-77
2022/06/20 03:05:57;;;;;;;27.10;4.57;;;;;;;13.73;100.00;100964.38;5095179;28;20028;-78
2022/06/20 03:08:24;;;;;;;31.42;5.82;;;;;;;13.74;100.00;100957.88;5077398;28;20060;-77
2022/06/20 03:10:52;;;;;;;31.25;4.75;;;;;;;13.71;100.00;100949.91;5076588;28;20047;-77
2022/06/20 03:13:21;;;;;;;34.47;4.63;;;;;;;13.66;100.00;100943.94;5075676;28;20085;-77
2022/06/20 03:15:49;;;;;;;31.70;4.40;;;;;;;13.57;100.00;100947.53;5092603;28;20128;-77
2022/06/20 03:18:17;;;;;;;36.33;4.82;;;;;;;13.59;100.00;100934.47;5092432;28;20024;-77
2022/06/20 03:20:45;;;;;;;42.78;8.63;;;;;;;13.54;100.00;100934.03;5092244;28;20071;-77
2022/06/20 03:23:23;;;;;;;34.40;5.00;;;;;;;13.58;100.00;100943.78;5075377;28;20024;-78
2022/06/20 03:25:51;;;;;;;24.48;5.00;;;;;;;13.46;100.00;100931.97;5075747;28;20077;-77
2022/06/20 03:28:20;;;;;;;22.50;4.57;;;;;;;13.54;100.00;100934.94;5093635;28;20032;-77
2022/06/20 03:30:47;;;;;;;35.97;5.55;;;;;;;13.50;100.00;100946.34;5094439;28;20032;-77
2022/06/20 03:33:16;;;;;;;23.88;4.32;;;;;;;13.44;100.00;100952.38;5093326;28;20055;-77
2022/06/20 03:35:48;;;;;;;39.72;4.90;;;;;;;13.40;100.00;100947.16;5092002;28;20051;-77
2022/06/20 03:38:15;;;;;;;34.38;6.03;;;;;;;13.39;100.00;100958.31;5092222;28;20024;-77
2022/06/20 03:40:42;;;;;;;37.25;6.25;;;;;;;13.41;100.00;100962.66;5075245;28;20136;-77
2022/06/20 03:43:11;;;;;;;33.40;5.38;;;;;;;13.37;100.00;100977.69;5095337;28;20024;-77
2022/06/20 03:45:42;;;;;;;34.25;6.03;;;;;;;13.42;100.00;100986.38;5097429;28;20070;-77
2022/06/20 03:48:13;;;;;;;30.10;4.75;;;;;;;13.58;100.00;100993.28;5096322;28;20024;-77
2022/06/20 03:50:54;;;;;;;31.27;5.50;;;;;;;13.49;100.00;101010.59;5097462;28;20060;-77
2022/06/20 03:54:04;;;;;;;35.72;5.97;;;;;;;13.50;100.00;101015.13;5079520;28;20471;-77
2022/06/20 03:56:40;;;;;;;25.60;4.45;;;;;;;13.55;100.00;101021.94;5054111;28;20491;-77
2022/06/20 03:59:24;;;;;;;36.25;5.70;;;;;;;13.56;100.00;101007.19;5097407;28;20073;-77
2022/06/20 04:01:58;;;;;;;29.98;5.28;;;;;;;13.47;100.00;101005.25;5080503;28;20028;-77
2022/06/20 04:04:42;;;;;;;27.30;4.85;;;;;;;13.54;100.00;101031.22;5098704;28;20028;-77
2022/06/20 04:07:15;;;;;;;37.10;4.63;;;;;;;13.57;100.00;101047.41;5080920;28;20052;-77
2022/06/20 04:12:44;;;;;;;24.58;4.35;;;;;;;13.60;100.00;101057.28;5098984;28;19908;-77
2022/06/20 04:15:41;;;;;;;32.70;4.38;;;;;;;13.56;100.00;101058.56;5099236;28;20042;-77
2022/06/20 04:18:29;;;;;;;22.73;4.13;;;;;;;13.60;100.00;101062.81;5052551;28;20054;-77
2022/06/20 04:20:57;;;;;;;24.40;4.18;;;;;;;13.70;100.00;101068.34;5096142;28;20451;-77
2022/06/20 04:23:30;;;;;;;42.25;5.15;;;;;;;13.73;100.00;101066.19;5079117;28;20073;-77
2022/06/20 04:25:59;;;;;;;29.10;3.80;;;;;;;13.77;100.00;101058.53;5078332;28;20028;-76
2022/06/20 04:28:28;;;;;;;25.48;3.38;;;;;;;13.69;100.00;101056.50;5095533;28;20544;-77
2022/06/20 04:31:16;;;;;;;21.23;2.85;;;;;;;13.78;100.00;101061.16;5095813;28;20020;-77
2022/06/20 04:33:48;;;;;;;27.40;4.25;;;;;;;13.74;100.00;101070.72;5096950;28;20085;-77
2022/06/20 04:36:56;;;;;;;41.67;4.03;;;;;;;13.76;100.00;101078.81;5096085;28;20047;-77
2022/06/20 04:39:37;;;;;;;21.02;3.20;;;;;;;13.78;100.00;101088.66;5081961;28;20040;-77
2022/06/20 04:42:27;;;;;;;21.83;3.10;;;;;;;13.80;100.00;101099.53;5096116;28;20048;-77
2022/06/20 04:45:02;;;;;;;21.00;4.20;;;;;;;13.73;100.00;101098.34;5096395;28;20042;-77
2022/06/20 04:47:53;;;;;;;45.90;5.78;;;;;;;13.71;100.00;101104.00;5095121;28;20024;-77
2022/06/20 04:50:22;;;;;;;35.20;3.90;;;;;;;13.75;100.00;101116.47;5095046;28;20028;-77
2022/06/20 04:52:50;;;;;;;16.85;4.68;;;;;;;13.74;100.00;101119.34;5078144;28;20020;-77
2022/06/20 04:55:20;;;;;;;24.27;4.00;;;;;;;13.81;100.00;101114.16;5093643;28;20028;-77
2022/06/20 04:57:46;;;;;;;28.95;4.35;;;;;;;13.89;100.00;101118.00;5094829;28;20035;-78
2022/06/20 05:00:22;;;;;;;29.50;4.70;;;;;;;13.93;100.00;101119.47;5094873;28;20040;-77
2022/06/20 05:02:50;;;;;;;18.25;4.78;;;;;;;13.86;100.00;101125.66;5094878;28;20035;-77
2022/06/20 05:05:21;;;;;;;30.33;4.80;;;;;;;13.83;100.00;101136.94;5097443;28;20585;-78
2022/06/20 05:07:48;;;;;;;18.05;4.30;;;;;;;13.94;100.00;101139.63;5097350;28;20031;-77
2022/06/20 05:10:19;;;;;;;31.45;4.68;;;;;;;13.96;100.00;101138.47;5097441;28;20039;-77
2022/06/20 05:13:13;;;;;;;21.58;4.80;;;;;;;13.87;100.00;101135.66;5098159;28;20047;-77
2022/06/20 05:15:48;;;;;;;35.78;5.05;;;;;;;13.82;100.00;101133.31;5087598;28;20377;-77
2022/06/20 05:18:22;;;;;;;22.45;5.53;;;;;;;13.84;100.00;101130.41;5078739;28;20024;-77
2022/06/20 05:20:52;;;;;;;33.60;5.60;;;;;;;14.01;100.00;101123.44;5096183;28;20036;-77
2022/06/20 05:23:37;;;;;;;25.02;5.00;;;;;;;13.91;100.00;101127.00;5098034;28;20031;-78
2022/06/20 05:26:04;;;;;;;33.60;5.25;;;;;;;14.04;100.00;101126.78;5097434;28;20035;-77
2022/06/20 05:28:32;;;;;;;34.20;5.43;;;;;;;13.95;100.00;101133.09;5097264;28;20035;-78
2022/06/20 05:31:01;;;;;;;24.77;4.95;;;;;;;14.10;100.00;101128.97;5084462;28;20596;-79
2022/06/20 05:33:36;;;;;;;23.20;4.75;;;;;;;14.03;100.00;101133.28;5081004;28;20032;-78
2022/06/20 05:36:21;;;;;;;23.83;4.82;;;;;;;14.19;100.00;101126.41;5096033;28;20502;-78
2022/06/20 05:39:17;;;;;;;27.90;6.07;;;;;;;14.09;100.00;101138.25;5096185;28;20030;-78
2022/06/20 05:41:43;;;;;;;21.60;5.13;;;;;;;14.12;100.00;101139.84;5096110;28;20111;-78
2022/06/20 05:44:12;;;;;;;28.00;5.22;;;;;;;14.12;100.00;101137.97;5098424;28;20056;-78
2022/06/20 05:46:42;;;;;;;32.13;5.47;;;;;;;14.22;100.00;101121.50;5097294;28;20475;-78
2022/06/20 05:49:12;;;;;;;20.45;5.68;;;;;;;14.36;100.00;101125.72;5096668;28;20036;-78
2022/06/20 05:51:41;;;;;;;25.50;4.95;;;;;;;14.41;100.00;101122.56;5098041;28;20028;-78
2022/06/20 05:54:19;;;;;;;33.00;6.80;;;;;;;14.37;100.00;101116.47;5097523;28;20554;-78
2022/06/20 05:56:54;;;;;;;25.40;5.28;;;;;;;14.53;100.00;101115.94;5096993;28;20032;-78
2022/06/20 05:59:26;;;;;;;26.98;5.43;;;;;;;14.44;100.00;101111.25;5096200;28;20052;-78
2022/06/20 06:01:54;;;;;;;32.85;7.18;;;;;;;14.61;100.00;101107.88;5079172;28;20053;-77
2022/06/20 06:04:28;;;;;;;21.50;5.47;;;;;;;14.47;100.00;101113.75;5096091;28;20032;-78
2022/06/20 06:06:59;;;;;;;30.40;8.02;;;;;;;14.55;100.00;101116.66;5096650;28;20028;-78
2022/06/20 06:09:33;;;;;;;23.60;4.97;;;;;;;14.56;100.00;101125.78;5078386;28;20027;-78
2022/06/20 06:12:03;;;;;;;45.60;6.07;;;;;;;14.77;100.00;101122.97;5095560;28;20035;-78
2022/06/20 06:14:36;;;;;;;29.85;5.40;;;;;;;14.81;100.00;101128.06;5095803;28;20387;-78
2022/06/20 06:17:26;;;;;;;24.73;4.68;;;;;;;14.78;100.00;101130.25;5096911;28;20032;-78
2022/06/20 06:19:53;;;;;;;24.38;5.07;;;;;;;14.95;100.00;101115.75;5095482;28;20039;-78
2022/06/20 06:22:24;;;;;;;38.15;5.43;;;;;;;14.90;100.00;101112.53;5095021;28;20031;-78
2022/06/20 06:24:56;;;;;;;21.10;5.43;;;;;;;14.99;100.00;101116.34;5078281;28;20111;-78
2022/06/20 06:27:31;;;;;;;17.00;4.47;;;;;;;15.11;100.00;101126.22;5096117;28;20024;-78
2022/06/20 06:30:13;;;;;;;28.88;4.65;;;;;;;15.14;100.00;101136.97;5096160;28;20479;-78
2022/06/20 06:32:43;;;;;;;34.70;5.35;;;;;;;15.06;100.00;101134.06;5095329;28;20028;-77
2022/06/20 06:35:08;;;;;;;23.05;4.50;;;;;;;15.16;100.00;101140.44;5095432;28;20047;-77
2022/06/20 06:37:53;;;;;;;27.25;5.18;;;;;;;15.69;100.00;101140.97;5078810;28;20364;-77
2022/06/20 06:40:30;;;;;;;21.70;4.65;;;;;;;16.46;100.00;101139.91;5096184;28;20047;-77
2022/06/20 06:42:58;;;;;;;29.23;3.92;;;;;;;17.15;100.00;101136.72;5096886;28;20076;-77
2022/06/20 06:45:26;;;;;;;27.80;4.40;;;;;;;17.57;100.00;101144.38;5096230;28;20086;-77
2022/06/20 06:47:59;;;;;;;29.05;4.10;;;;;;;18.14;100.00;101152.28;5097913;28;20028;-77
2022/06/20 06:50:35;;;;;;;19.08;3.70;;;;;;;18.49;100.00;101154.00;5097491;28;20028;-78
2022/06/20 06:53:11;;;;;;;23.27;3.92;;;;;;;18.92;100.00;101152.13;5095800;28;20028;-78
2022/06/20 06:55:41;;;;;;;20.17;3.83;;;;;;;18.89;100.00;101158.03;5080679;28;20035;-78
2022/06/20 06:58:13;;;;;;;24.50;3.80;;;;;;;18.55;100.00;101169.13;5096621;28;20047;-78
2022/06/20 07:00:48;;;;;;;18.48;3.45;;;;;;;18.59;100.00;101159.41;5096427;28;20028;-78
2022/06/20 07:03:26;;;;;;;23.58;3.25;;;;;;;18.83;100.00;101174.44;5096668;28;20105;-78
2022/06/20 07:06:06;;;;;;;18.80;3.95;;;;;;;18.29;100.00;101166.38;5097063;28;20054;-78
2022/06/20 07:08:42;;;;;;;19.90;3.67;;;;;;;19.10;99.29;101173.31;5100608;28;20024;-78
2022/06/20 07:11:13;;;;;;;21.48;3.20;;;;;;;18.28;100.00;101172.97;5083096;28;20093;-78
2022/06/20 07:13:50;;;;;;;18.63;3.85;;;;;;;18.84;100.00;101184.50;5100526;28;20027;-78
2022/06/20 07:16:40;;;;;;;16.88;3.78;;;;;;;17.62;100.00;101180.75;5082174;28;20032;-78
2022/06/20 07:19:10;;;;;;;16.40;3.63;;;;;;;17.92;100.00;101178.59;5100478;28;20024;-77
2022/06/20 07:21:38;;;;;;;24.42;4.90;;;;;;;17.74;100.00;101182.25;5082155;28;20039;-78
2022/06/20 07:24:23;;;;;;;25.67;4.63;;;;;;;18.11;100.00;101195.03;5100090;28;20024;-78
2022/06/20 07:27:35;;;;;;;22.33;3.63;;;;;;;18.86;99.10;101193.56;5083152;28;20035;-78
2022/06/20 07:30:10;;;;;;;20.20;3.28;;;;;;;18.39;100.00;101188.44;5100102;28;20032;-78
2022/06/20 07:32:41;;;;;;;18.85;4.25;;;;;;;18.46;100.00;101192.28;5101048;28;20077;-78
2022/06/20 07:35:14;;;;;;;19.50;5.43;;;;;;;18.00;100.00;101195.28;5099896;28;20043;-77
2022/06/20 07:37:47;;;;;;;21.85;5.15;;;;;;;18.61;100.00;101192.53;5100647;28;20128;-77
2022/06/20 07:40:19;;;;;;;20.35;4.53;;;;;;;17.97;100.00;101193.72;5100857;28;20024;-77
2022/06/20 07:42:57;;;;;;;20.92;5.25;;;;;;;18.25;100.00;101193.56;5099992;28;20063;-77
2022/06/20 07:45:28;;;;;;;14.32;3.70;;;;;;;19.07;100.00;101198.63;5100277;28;20505;-78
2022/06/20 07:47:58;;;;;;;23.50;4.88;;;;;;;19.57;95.98;101200.47;5100159;28;20032;-78
2022/06/20 07:50:38;;;;;;;25.00;4.50;;;;;;;18.26;100.00;101195.28;5098828;28;20024;-77
2022/06/20 07:53:16;;;;;;;22.23;4.63;;;;;;;17.74;100.00;101198.88;5098903;28;20051;-78
2022/06/20 07:55:49;;;;;;;20.77;4.20;;;;;;;17.90;100.00;101205.59;5099871;28;20063;-78
2022/06/20 07:58:23;;;;;;;16.40;4.25;;;;;;;17.59;100.00;101192.16;5098960;28;20035;-77
2022/06/20 08:00:52;;;;;;;28.40;4.32;;;;;;;17.57;100.00;101191.44;5098399;28;20028;-78
2022/06/20 08:03:36;;;;;;;18.30;3.47;;;;;;;18.51;100.00;101199.09;5099421;28;20169;-77
2022/06/20 08:06:10;;;;;;;25.70;4.38;;;;;;;19.34;97.38;101191.94;5099009;28;20024;-78
2022/06/20 08:08:46;;;;;;;16.58;3.47;;;;;;;19.68;93.22;101196.50;5098507;28;20020;-78
2022/06/20 08:11:41;;;;;;;14.80;3.33;;;;;;;20.93;87.81;101188.63;5081636;28;20050;-78
2022/06/20 08:14:30;;;;;;;18.73;3.35;;;;;;;20.84;86.80;101200.88;5081445;28;20032;-78
2022/06/20 08:17:08;;;;;;;17.23;3.65;;;;;;;19.73;90.74;101199.63;5097160;28;20028;-77
2022/06/20 08:19:34;;;;;;;14.57;3.05;;;;;;;19.19;94.28;101213.09;5098501;28;20439;-78
2022/06/20 08:22:10;;;;;;;20.83;3.80;;;;;;;18.51;99.92;101212.06;5081281;28;20032;-77
2022/06/20 08:24:44;;;;;;;17.08;3.67;;;;;;;18.32;100.00;101207.66;5097902;28;20539;-77
2022/06/20 08:27:15;;;;;;;12.70;3.35;;;;;;;19.47;97.15;101210.91;5081211;28;20076;-78
2022/06/20 08:29:53;;;;;;;26.92;4.15;;;;;;;18.33;99.38;101218.56;5100921;28;20028;-78
2022/06/20 08:32:39;;;;;;;16.40;3.70;;;;;;;18.22;100.00;101218.84;5103713;28;20035;-77
2022/06/20 08:35:25;;;;;;;14.80;3.42;;;;;;;19.04;95.17;101216.53;5102090;28;20509;-78
2022/06/20 08:37:58;;;;;;;11.32;3.03;;;;;;;18.96;90.91;101205.38;5103873;28;20043;-78
2022/06/20 08:40:40;;;;;;;18.52;3.42;;;;;;;18.24;97.05;101216.78;5104132;28;20502;-77
2022/06/20 08:43:11;;;;;;;12.82;2.78;;;;;;;18.84;93.71;101213.16;5101944;28;20040;-78
2022/06/20 08:45:51;;;;;;;17.20;3.45;;;;;;;20.46;84.04;101213.66;5103496;28;20028;-78
2022/06/20 08:48:42;;;;;;;13.25;2.60;;;;;;;20.72;78.18;101219.00;5104042;28;20080;-78
2022/06/20 08:51:26;;;;;;;12.60;2.53;;;;;;;20.29;79.49;101232.28;5103756;28;20100;-78
2022/06/20 08:54:13;;;;;;;11.55;2.85;;;;;;;18.65;85.68;101233.66;5103378;28;20547;-78
2022/06/20 08:57:00;;;;;;;13.02;2.95;;;;;;;18.92;87.84;101245.59;5084764;28;20035;-77
2022/06/20 08:59:52;;;;;;;11.20;2.35;;;;;;;19.87;81.95;101231.44;5102113;28;20387;-78
2022/06/20 09:02:36;;;;;;;11.27;2.10;;;;;;;19.76;80.40;101231.81;5102926;28;20028;-78
2022/06/20 09:05:34;;;;;;;9.52;2.28;;;;;;;19.09;82.22;101241.00;5101829;28;20024;-78
2022/06/20 09:08:30;;;;;;;9.85;1.80;;;;;;;18.61;81.60;101248.91;5111034;28;20039;-78
2022/06/20 09:11:33;;;;;;;9.63;2.42;;;;;;;18.63;83.94;101244.06;5124228;28;20102;-78
2022/06/20 09:14:20;;;;;;;15.20;2.42;;;;;;;18.44;81.54;101258.16;5112905;28;20061;-78
2022/06/20 09:17:01;;;;;;;13.02;2.60;;;;;;;18.99;83.22;101254.13;5123719;28;20036;-78
2022/06/20 09:20:03;;;;;;;10.38;2.80;;;;;;;20.59;75.41;101246.50;5125146;28;20480;-78
2022/06/20 09:22:57;;;;;;;17.30;2.78;;;;;;;20.90;74.81;101252.16;5107731;28;20023;-78
2022/06/20 09:25:45;;;;;;;6.43;2.38;;;;;;;21.15;72.55;101261.25;5124055;28;20046;-78
2022/06/20 09:28:17;;;;;;;8.73;1.88;;;;;;;21.22;64.57;101255.88;5126532;28;20509;-78
2022/06/20 09:31:06;;;;;;;13.10;2.00;;;;;;;21.84;62.19;101260.53;5108565;28;20027;-78
2022/06/20 09:33:44;;;;;;;6.03;1.85;;;;;;;21.91;65.53;101255.09;5105988;28;20032;-78
2022/06/20 09:36:22;;;;;;;4.18;1.70;;;;;;;21.80;65.42;101260.03;5123589;28;20038;-78
2022/06/20 09:38:56;;;;;;;12.23;2.42;;;;;;;21.54;67.15;101259.53;5117371;28;20478;-76
2022/06/20 09:41:36;;;;;;;11.32;2.85;;;;;;;20.18;73.34;101262.22;5114097;28;20044;-77
2022/06/20 09:44:20;;;;;;;16.85;3.20;;;;;;;19.21;78.28;101269.31;5116591;28;20043;-77
2022/06/20 09:47:07;;;;;;;12.82;2.60;;;;;;;18.96;82.51;101274.78;5114840;28;20036;-77
2022/06/20 09:49:48;;;;;;;14.63;3.65;;;;;;;19.78;81.27;101269.47;5114711;28;20525;-76
2022/06/20 09:52:42;;;;;;;9.98;2.75;;;;;;;20.65;76.16;101260.59;5098019;28;20027;-77
2022/06/20 09:55:40;;;;;;;12.25;2.85;;;;;;;20.41;75.03;101264.25;5090643;28;20126;-77
2022/06/20 09:58:16;;;;;;;10.40;3.30;;;;;;;20.46;77.69;101261.81;5070618;28;20074;-77
2022/06/20 10:01:00;;;;;;;10.73;3.10;;;;;;;21.33;74.40;101263.78;5097929;28;20050;-75
2022/06/20 10:03:38;;;;;;;14.85;2.72;;;;;;;20.60;74.75;101268.56;5115813;28;20148;-76
2022/06/20 10:06:13;;;;;;;14.32;2.75;;;;;;;20.17;73.47;101267.94;5114449;28;20437;-76
2022/06/20 10:08:57;;;;;;;17.10;3.08;;;;;;;20.37;74.30;101274.00;5100120;28;20020;-76
2022/06/20 10:11:39;;;;;;;7.90;2.70;;;;;;;21.37;72.12;101272.66;5076788;28;20036;-76
2022/06/20 10:14:27;;;;;;;8.23;2.83;;;;;;;21.26;69.60;101274.78;5093851;28;20024;-76
2022/06/20 10:17:13;;;;;;;13.25;3.05;;;;;;;21.32;69.87;101269.53;5094875;28;20032;-76
2022/06/20 10:19:38;;;;;;;11.15;2.72;;;;;;;21.63;68.67;101276.03;5076461;28;20028;-76
2022/06/20 10:22:29;;;;;;;6.57;2.38;;;;;;;22.22;69.14;101263.38;5094539;28;20035;-77
2022/06/20 10:25:16;;;;;;;7.85;2.40;;;;;;;22.11;63.35;101278.63;5093452;28;20028;-76
2022/06/20 10:27:51;;;;;;;11.90;2.58;;;;;;;22.39;62.09;101278.91;5095538;28;20036;-76
2022/06/20 10:30:25;;;;;;;10.13;2.60;;;;;;;22.39;60.85;101272.47;5094532;28;20031;-76
2022/06/20 10:33:14;;;;;;;12.27;2.35;;;;;;;22.32;65.20;101280.75;5093215;28;20619;-76
2022/06/20 10:35:58;;;;;;;9.13;2.28;;;;;;;22.37;63.16;101285.75;5062974;28;20040;-76
2022/06/20 10:38:37;;;;;;;14.93;3.05;;;;;;;21.78;63.01;101292.81;5093189;28;20066;-76
2022/06/20 10:41:15;;;;;;;6.07;2.40;;;;;;;20.86;66.90;101289.75;5093328;28;20048;-76
2022/06/20 10:43:42;;;;;;;15.02;3.03;;;;;;;20.58;67.93;101298.50;5093790;28;20378;-76
2022/06/20 10:46:15;;;;;;;9.73;2.15;;;;;;;21.30;67.04;101298.47;5076456;28;20110;-77
2022/06/20 10:48:59;;;;;;;7.32;2.33;;;;;;;22.12;62.07;101301.78;5093564;28;20077;-76
2022/06/20 10:51:34;;;;;;;12.23;3.03;;;;;;;21.89;60.88;101299.00;5092639;28;20426;-76
2022/06/20 10:54:36;;;;;;;11.77;3.10;;;;;;;21.94;61.16;101303.00;5092483;28;20337;-76
2022/06/20 10:57:53;;;;;;;9.38;3.10;;;;;;;21.92;59.50;101304.22;5075823;28;20032;-76
2022/06/20 11:00:22;;;;;;;10.85;2.90;;;;;;;22.60;58.06;101299.66;5051119;28;20128;-76
2022/06/20 11:03:26;;;;;;;13.48;3.20;;;;;;;21.94;60.30;101296.53;5060129;28;20510;-76
2022/06/20 11:06:17;;;;;;;12.77;3.72;;;;;;;21.12;65.66;101297.84;4995565;28;20044;-76
2022/06/20 11:08:53;;;;;;;14.18;2.88;;;;;;;21.22;65.38;101303.22;4979299;28;20569;-76
2022/06/20 11:11:52;;;;;;;11.95;3.33;;;;;;;21.34;63.64;101320.38;5069613;28;20079;-76
2022/06/20 11:14:29;;;;;;;16.63;3.60;;;;;;;21.92;60.05;101320.94;5093853;28;20032;-76
2022/06/20 11:17:09;;;;;;;8.48;3.47;;;;;;;22.47;59.88;101319.84;5092511;28;20085;-77
2022/06/20 11:19:48;;;;;;;13.50;3.25;;;;;;;22.79;60.20;101311.31;5093750;28;20119;-77
2022/06/20 11:22:38;;;;;;;11.57;3.17;;;;;;;22.38;60.61;101316.25;5092634;28;20032;-77
2022/06/20 11:25:29;;;;;;;12.23;3.42;;;;;;;22.00;62.08;101321.75;5092598;28;20077;-77
2022/06/20 11:28:12;;;;;;;13.15;2.97;;;;;;;22.36;60.29;101317.50;5092831;28;20069;-78
2022/06/20 11:30:47;;;;;;;13.75;2.85;;;;;;;22.05;59.54;101311.97;5093693;28;20036;-77
2022/06/20 11:33:19;;;;;;;11.10;2.88;;;;;;;22.41;60.28;101314.16;5093547;28;20052;-77
2022/06/20 11:36:02;;;;;;;19.40;3.42;;;;;;;22.68;58.03;101313.53;5075343;28;20267;-77
2022/06/20 11:38:49;;;;;;;13.48;3.25;;;;;;;22.74;59.52;101315.56;5093872;28;20028;-77
2022/06/20 11:41:19;;;;;;;14.68;3.42;;;;;;;22.57;57.27;101311.19;5075313;28;20048;-77
2022/06/20 11:44:08;;;;;;;17.52;3.40;;;;;;;22.92;59.05;101320.78;5093547;28;20028;-77
2022/06/20 11:46:46;;;;;;;13.73;2.95;;;;;;;22.71;58.82;101315.06;5092278;28;20024;-77
2022/06/20 11:49:46;;;;;;;12.35;3.25;;;;;;;23.08;56.15;101310.50;5092051;28;20390;-77
2022/06/20 11:52:44;;;;;;;12.70;3.20;;;;;;;23.03;51.80;101315.78;5092283;28;20079;-77
2022/06/20 11:55:22;;;;;;;10.90;3.45;;;;;;;23.33;54.70;101294.28;5092269;28;20118;-75
2022/06/20 11:58:00;;;;;;;10.57;3.20;;;;;;;22.58;56.68;101301.78;5076563;28;20115;-76
2022/06/20 12:00:52;;;;;;;13.30;3.20;;;;;;;22.70;58.38;101304.97;5092918;28;20544;-76